sensor_id;sensor_type;location;lat;lon;timestamp;noise_LAeq;noise_LA_min;noise_LA_max;noise_LA01;noise_LA95
46393;Laerm;32099;53.588;10.176;2023-04-24T00:00:14;42.56;37.86;54.47;;
46393;Laerm;32099;53.588;10.176;2023-04-24T00:02:40;41.05;37.27;55.85;;
46393;Laerm;32099;53.588;10.176;2023-04-24T00:05:07;40.76;37.50;58.04;;
46393;Laerm;32099;53.588;10.176;2023-04-24T00:07:33;40.56;37.40;57.02;;
46393;Laerm;32099;53.588;10.176;2023-04-24T00:09:58;39.64;36.05;50.01;;
46393;Laerm;32099;53.588;10.176;2023-04-24T00:12:24;40.14;36.73;53.46;;
46393;Laerm;32099;53.588;10.176;2023-04-24T00:14:50;40.23;36.84;57.13;;
46393;Laerm;32099;53.588;10.176;2023-04-24T00:17:16;38.97;35.89;51.34;;
46393;Laerm;32099;53.588;10.176;2023-04-24T00:19:45;37.92;34.84;47.81;;
46393;Laerm;32099;53.588;10.176;2023-04-24T00:22:10;38.48;35.41;53.51;;
46393;Laerm;32099;53.588;10.176;2023-04-24T00:24:36;38.15;35.55;46.49;;
46393;Laerm;32099;53.588;10.176;2023-04-24T00:27:01;38.36;35.45;45.24;;
46393;Laerm;32099;53.588;10.176;2023-04-24T00:29:27;38.22;35.36;50.12;;
46393;Laerm;32099;53.588;10.176;2023-04-24T00:31:53;37.85;34.56;48.39;;
46393;Laerm;32099;53.588;10.176;2023-04-24T00:34:19;38.53;35.27;48.91;;
46393;Laerm;32099;53.588;10.176;2023-04-24T00:36:44;39.18;36.05;57.82;;
46393;Laerm;32099;53.588;10.176;2023-04-24T00:39:09;38.60;35.18;44.93;;
46393;Laerm;32099;53.588;10.176;2023-04-24T00:41:35;38.94;35.29;47.06;;
46393;Laerm;32099;53.588;10.176;2023-04-24T00:44:00;38.36;35.06;52.37;;
46393;Laerm;32099;53.588;10.176;2023-04-24T00:46:25;38.55;35.34;44.72;;
46393;Laerm;32099;53.588;10.176;2023-04-24T00:48:51;39.27;35.04;49.77;;
46393;Laerm;32099;53.588;10.176;2023-04-24T00:51:17;38.32;35.11;43.75;;
46393;Laerm;32099;53.588;10.176;2023-04-24T00:53:43;38.47;35.43;47.25;;
46393;Laerm;32099;53.588;10.176;2023-04-24T00:56:09;37.69;34.81;46.27;;
46393;Laerm;32099;53.588;10.176;2023-04-24T00:58:34;37.60;34.77;42.80;;
46393;Laerm;32099;53.588;10.176;2023-04-24T01:01:00;38.95;35.94;46.11;;
46393;Laerm;32099;53.588;10.176;2023-04-24T01:03:29;38.60;35.42;49.79;;
46393;Laerm;32099;53.588;10.176;2023-04-24T01:05:56;38.64;35.45;44.92;;
46393;Laerm;32099;53.588;10.176;2023-04-24T01:08:23;38.46;34.85;45.55;;
46393;Laerm;32099;53.588;10.176;2023-04-24T01:10:51;38.38;35.51;42.56;;
46393;Laerm;32099;53.588;10.176;2023-04-24T01:13:18;37.91;34.87;46.49;;
46393;Laerm;32099;53.588;10.176;2023-04-24T01:15:43;38.31;35.22;41.49;;
46393;Laerm;32099;53.588;10.176;2023-04-24T01:18:09;39.07;35.96;47.75;;
46393;Laerm;32099;53.588;10.176;2023-04-24T01:20:36;39.08;35.72;45.14;;
46393;Laerm;32099;53.588;10.176;2023-04-24T01:23:05;38.09;35.19;44.66;;
46393;Laerm;32099;53.588;10.176;2023-04-24T01:25:31;37.98;35.00;51.36;;
46393;Laerm;32099;53.588;10.176;2023-04-24T01:27:57;38.49;35.31;54.24;;
46393;Laerm;32099;53.588;10.176;2023-04-24T01:30:22;38.84;35.62;44.96;;
46393;Laerm;32099;53.588;10.176;2023-04-24T01:32:48;38.36;35.73;42.76;;
46393;Laerm;32099;53.588;10.176;2023-04-24T01:35:13;38.84;34.98;48.38;;
46393;Laerm;32099;53.588;10.176;2023-04-24T01:37:39;38.30;35.48;43.20;;
46393;Laerm;32099;53.588;10.176;2023-04-24T01:40:06;39.09;34.75;52.31;;
46393;Laerm;32099;53.588;10.176;2023-04-24T01:42:32;42.14;35.47;55.41;;
46393;Laerm;32099;53.588;10.176;2023-04-24T01:44:57;38.66;35.54;42.25;;
46393;Laerm;32099;53.588;10.176;2023-04-24T01:47:23;38.64;35.32;51.67;;
46393;Laerm;32099;53.588;10.176;2023-04-24T01:49:50;37.96;34.96;40.93;;
46393;Laerm;32099;53.588;10.176;2023-04-24T01:52:15;38.07;34.45;42.24;;
46393;Laerm;32099;53.588;10.176;2023-04-24T01:54:41;37.12;34.76;43.23;;
46393;Laerm;32099;53.588;10.176;2023-04-24T01:57:07;37.69;34.92;43.21;;
46393;Laerm;32099;53.588;10.176;2023-04-24T01:59:33;37.46;34.13;44.58;;
46393;Laerm;32099;53.588;10.176;2023-04-24T02:01:58;37.45;34.60;44.60;;
46393;Laerm;32099;53.588;10.176;2023-04-24T02:04:23;37.60;34.66;49.17;;
46393;Laerm;32099;53.588;10.176;2023-04-24T02:06:49;37.82;34.61;43.58;;
46393;Laerm;32099;53.588;10.176;2023-04-24T02:09:14;38.52;35.11;44.60;;
46393;Laerm;32099;53.588;10.176;2023-04-24T02:11:40;38.17;35.18;42.91;;
46393;Laerm;32099;53.588;10.176;2023-04-24T02:14:05;40.70;34.83;63.08;;
46393;Laerm;32099;53.588;10.176;2023-04-24T02:16:30;49.64;34.68;65.56;;
46393;Laerm;32099;53.588;10.176;2023-04-24T02:18:57;49.68;35.43;65.21;;
46393;Laerm;32099;53.588;10.176;2023-04-24T02:21:22;50.87;37.04;67.28;;
46393;Laerm;32099;53.588;10.176;2023-04-24T02:23:48;46.41;35.82;65.68;;
46393;Laerm;32099;53.588;10.176;2023-04-24T02:26:13;40.89;37.09;49.29;;
46393;Laerm;32099;53.588;10.176;2023-04-24T02:28:39;40.29;36.46;47.72;;
46393;Laerm;32099;53.588;10.176;2023-04-24T02:31:04;40.52;36.99;49.02;;
46393;Laerm;32099;53.588;10.176;2023-04-24T02:33:31;40.37;36.58;49.01;;
46393;Laerm;32099;53.588;10.176;2023-04-24T02:35:56;40.51;35.47;52.29;;
46393;Laerm;32099;53.588;10.176;2023-04-24T02:38:21;44.05;35.71;67.44;;
46393;Laerm;32099;53.588;10.176;2023-04-24T02:40:47;47.34;36.20;65.43;;
46393;Laerm;32099;53.588;10.176;2023-04-24T02:43:12;47.63;36.23;65.54;;
46393;Laerm;32099;53.588;10.176;2023-04-24T02:45:37;47.96;35.91;67.85;;
46393;Laerm;32099;53.588;10.176;2023-04-24T02:48:03;47.81;36.98;66.87;;
46393;Laerm;32099;53.588;10.176;2023-04-24T02:50:29;48.02;37.03;66.09;;
46393;Laerm;32099;53.588;10.176;2023-04-24T02:52:54;48.35;37.04;66.61;;
46393;Laerm;32099;53.588;10.176;2023-04-24T02:55:19;50.24;37.29;70.11;;
46393;Laerm;32099;53.588;10.176;2023-04-24T02:57:45;55.15;37.98;71.02;;
46393;Laerm;32099;53.588;10.176;2023-04-24T03:00:10;52.22;38.30;66.90;;
46393;Laerm;32099;53.588;10.176;2023-04-24T03:02:36;55.88;38.55;72.54;;
46393;Laerm;32099;53.588;10.176;2023-04-24T03:05:02;56.01;39.47;72.41;;
46393;Laerm;32099;53.588;10.176;2023-04-24T03:07:27;56.93;40.64;70.67;;
46393;Laerm;32099;53.588;10.176;2023-04-24T03:09:52;58.27;40.27;71.56;;
46393;Laerm;32099;53.588;10.176;2023-04-24T03:12:18;58.01;39.96;71.91;;
46393;Laerm;32099;53.588;10.176;2023-04-24T03:14:43;58.80;40.00;73.08;;
46393;Laerm;32099;53.588;10.176;2023-04-24T03:17:09;57.66;39.88;72.86;;
46393;Laerm;32099;53.588;10.176;2023-04-24T03:19:34;57.59;40.89;72.71;;
46393;Laerm;32099;53.588;10.176;2023-04-24T03:22:02;57.56;40.86;74.01;;
46393;Laerm;32099;53.588;10.176;2023-04-24T03:24:27;58.02;40.45;73.14;;
46393;Laerm;32099;53.588;10.176;2023-04-24T03:26:53;58.32;41.04;73.98;;
46393;Laerm;32099;53.588;10.176;2023-04-24T03:29:18;57.03;40.42;73.12;;
46393;Laerm;32099;53.588;10.176;2023-04-24T03:31:44;57.46;40.83;71.53;;
46393;Laerm;32099;53.588;10.176;2023-04-24T03:34:09;55.96;40.96;73.18;;
46393;Laerm;32099;53.588;10.176;2023-04-24T03:36:35;55.57;41.16;70.45;;
46393;Laerm;32099;53.588;10.176;2023-04-24T03:39:00;57.05;40.94;76.46;;
46393;Laerm;32099;53.588;10.176;2023-04-24T03:41:25;52.40;40.80;66.36;;
46393;Laerm;32099;53.588;10.176;2023-04-24T03:43:50;49.41;40.75;68.24;;
46393;Laerm;32099;53.588;10.176;2023-04-24T03:46:16;49.19;40.66;66.00;;
46393;Laerm;32099;53.588;10.176;2023-04-24T03:48:41;48.96;40.38;63.54;;
46393;Laerm;32099;53.588;10.176;2023-04-24T03:51:06;48.01;40.00;61.94;;
46393;Laerm;32099;53.588;10.176;2023-04-24T03:53:32;44.46;39.58;58.65;;
46393;Laerm;32099;53.588;10.176;2023-04-24T03:55:57;43.58;39.42;50.96;;
46393;Laerm;32099;53.588;10.176;2023-04-24T03:58:22;44.07;39.53;53.08;;
46393;Laerm;32099;53.588;10.176;2023-04-24T04:00:48;44.71;40.14;62.65;;
46393;Laerm;32099;53.588;10.176;2023-04-24T04:03:13;51.02;40.55;67.90;;
46393;Laerm;32099;53.588;10.176;2023-04-24T04:05:39;47.95;41.13;61.05;;
46393;Laerm;32099;53.588;10.176;2023-04-24T04:08:05;49.46;41.22;64.37;;
46393;Laerm;32099;53.588;10.176;2023-04-24T04:10:30;53.71;40.45;72.64;;
46393;Laerm;32099;53.588;10.176;2023-04-24T04:12:55;51.69;40.29;67.22;;
46393;Laerm;32099;53.588;10.176;2023-04-24T04:15:21;54.80;40.73;75.39;;
46393;Laerm;32099;53.588;10.176;2023-04-24T04:17:46;54.13;41.25;71.76;;
46393;Laerm;32099;53.588;10.176;2023-04-24T04:20:12;49.74;41.45;64.93;;
46393;Laerm;32099;53.588;10.176;2023-04-24T04:22:37;48.89;41.33;64.84;;
46393;Laerm;32099;53.588;10.176;2023-04-24T04:25:03;49.62;40.65;65.89;;
46393;Laerm;32099;53.588;10.176;2023-04-24T04:27:29;48.85;40.67;65.77;;
46393;Laerm;32099;53.588;10.176;2023-04-24T04:29:57;51.17;40.68;65.16;;
46393;Laerm;32099;53.588;10.176;2023-04-24T04:32:24;48.39;41.52;64.57;;
46393;Laerm;32099;53.588;10.176;2023-04-24T04:34:49;51.92;41.07;66.65;;
46393;Laerm;32099;53.588;10.176;2023-04-24T04:37:18;52.65;41.74;67.60;;
46393;Laerm;32099;53.588;10.176;2023-04-24T04:39:43;51.89;41.09;67.22;;
46393;Laerm;32099;53.588;10.176;2023-04-24T04:42:08;44.42;40.66;54.09;;
46393;Laerm;32099;53.588;10.176;2023-04-24T04:44:34;47.88;40.18;61.98;;
46393;Laerm;32099;53.588;10.176;2023-04-24T04:47:01;47.17;40.75;59.15;;
46393;Laerm;32099;53.588;10.176;2023-04-24T04:49:29;45.24;41.03;56.03;;
46393;Laerm;32099;53.588;10.176;2023-04-24T04:51:54;44.64;41.55;51.65;;
46393;Laerm;32099;53.588;10.176;2023-04-24T04:54:19;45.81;41.49;56.83;;
46393;Laerm;32099;53.588;10.176;2023-04-24T04:56:45;50.43;41.19;63.79;;
46393;Laerm;32099;53.588;10.176;2023-04-24T04:59:10;49.25;41.90;65.34;;
46393;Laerm;32099;53.588;10.176;2023-04-24T05:01:36;48.60;41.91;64.10;;
46393;Laerm;32099;53.588;10.176;2023-04-24T05:04:01;46.84;42.03;65.24;;
46393;Laerm;32099;53.588;10.176;2023-04-24T05:06:26;49.05;42.51;62.49;;
46393;Laerm;32099;53.588;10.176;2023-04-24T05:08:52;48.00;42.20;59.78;;
46393;Laerm;32099;53.588;10.176;2023-04-24T05:11:22;50.75;42.49;68.54;;
46393;Laerm;32099;53.588;10.176;2023-04-24T05:13:47;54.44;41.83;74.47;;
46393;Laerm;32099;53.588;10.176;2023-04-24T05:16:12;47.38;42.18;61.81;;
46393;Laerm;32099;53.588;10.176;2023-04-24T05:18:38;47.34;42.79;66.23;;
46393;Laerm;32099;53.588;10.176;2023-04-24T05:21:03;48.22;41.58;70.22;;
46393;Laerm;32099;53.588;10.176;2023-04-24T05:23:28;51.45;42.04;64.10;;
46393;Laerm;32099;53.588;10.176;2023-04-24T05:25:54;51.50;41.81;69.33;;
46393;Laerm;32099;53.588;10.176;2023-04-24T05:28:19;51.20;42.78;65.74;;
46393;Laerm;32099;53.588;10.176;2023-04-24T05:30:45;49.49;41.81;62.50;;
46393;Laerm;32099;53.588;10.176;2023-04-24T05:33:11;50.41;41.38;64.33;;
46393;Laerm;32099;53.588;10.176;2023-04-24T05:35:36;52.84;41.22;66.98;;
46393;Laerm;32099;53.588;10.176;2023-04-24T05:38:01;49.54;40.83;64.37;;
46393;Laerm;32099;53.588;10.176;2023-04-24T05:40:27;45.64;41.10;55.65;;
46393;Laerm;32099;53.588;10.176;2023-04-24T05:42:52;50.78;41.53;67.98;;
46393;Laerm;32099;53.588;10.176;2023-04-24T05:45:17;48.52;40.40;64.20;;
46393;Laerm;32099;53.588;10.176;2023-04-24T05:47:43;51.20;40.98;65.45;;
46393;Laerm;32099;53.588;10.176;2023-04-24T05:50:09;48.69;40.38;64.55;;
46393;Laerm;32099;53.588;10.176;2023-04-24T05:52:35;47.91;40.90;62.45;;
46393;Laerm;32099;53.588;10.176;2023-04-24T05:55:00;51.67;40.81;69.78;;
46393;Laerm;32099;53.588;10.176;2023-04-24T05:57:25;46.61;39.67;61.90;;
46393;Laerm;32099;53.588;10.176;2023-04-24T05:59:51;44.35;39.33;60.77;;
46393;Laerm;32099;53.588;10.176;2023-04-24T06:02:16;56.40;40.22;70.11;;
46393;Laerm;32099;53.588;10.176;2023-04-24T06:04:42;52.55;41.07;63.78;;
46393;Laerm;32099;53.588;10.176;2023-04-24T06:07:10;44.02;39.74;60.94;;
46393;Laerm;32099;53.588;10.176;2023-04-24T06:09:35;59.16;39.07;78.08;;
46393;Laerm;32099;53.588;10.176;2023-04-24T06:12:01;48.83;37.90;67.45;;
46393;Laerm;32099;53.588;10.176;2023-04-24T06:14:27;55.18;39.12;66.45;;
46393;Laerm;32099;53.588;10.176;2023-04-24T06:16:52;53.25;37.93;61.01;;
46393;Laerm;32099;53.588;10.176;2023-04-24T06:19:18;50.73;37.00;62.20;;
46393;Laerm;32099;53.588;10.176;2023-04-24T06:21:43;52.28;38.41;63.64;;
46393;Laerm;32099;53.588;10.176;2023-04-24T06:24:08;43.08;37.17;54.39;;
46393;Laerm;32099;53.588;10.176;2023-04-24T06:26:34;48.52;36.92;64.81;;
46393;Laerm;32099;53.588;10.176;2023-04-24T06:28:59;54.95;37.17;75.81;;
46393;Laerm;32099;53.588;10.176;2023-04-24T06:31:25;49.16;36.65;64.33;;
46393;Laerm;32099;53.588;10.176;2023-04-24T06:33:50;46.75;36.89;70.30;;
46393;Laerm;32099;53.588;10.176;2023-04-24T06:36:16;42.35;35.54;58.41;;
46393;Laerm;32099;53.588;10.176;2023-04-24T06:38:42;45.43;36.24;62.44;;
46393;Laerm;32099;53.588;10.176;2023-04-24T06:41:07;48.84;35.27;66.05;;
46393;Laerm;32099;53.588;10.176;2023-04-24T06:43:33;48.03;34.94;63.36;;
46393;Laerm;32099;53.588;10.176;2023-04-24T06:45:59;46.16;37.77;60.98;;
46393;Laerm;32099;53.588;10.176;2023-04-24T06:48:24;45.78;35.36;60.56;;
46393;Laerm;32099;53.588;10.176;2023-04-24T06:50:50;50.97;36.16;65.46;;
46393;Laerm;32099;53.588;10.176;2023-04-24T06:53:15;49.30;35.44;66.73;;
46393;Laerm;32099;53.588;10.176;2023-04-24T06:55:41;42.81;35.21;63.27;;
46393;Laerm;32099;53.588;10.176;2023-04-24T06:58:06;44.46;36.29;60.11;;
46393;Laerm;32099;53.588;10.176;2023-04-24T07:00:32;49.48;36.71;64.55;;
46393;Laerm;32099;53.588;10.176;2023-04-24T07:02:57;42.27;36.23;58.30;;
46393;Laerm;32099;53.588;10.176;2023-04-24T07:05:22;52.22;36.29;67.24;;
46393;Laerm;32099;53.588;10.176;2023-04-24T07:07:48;44.37;34.94;59.40;;
46393;Laerm;32099;53.588;10.176;2023-04-24T07:10:14;45.41;36.56;64.86;;
46393;Laerm;32099;53.588;10.176;2023-04-24T07:12:40;42.33;36.60;56.55;;
46393;Laerm;32099;53.588;10.176;2023-04-24T07:15:06;48.50;34.81;64.75;;
46393;Laerm;32099;53.588;10.176;2023-04-24T07:17:33;40.14;34.29;57.54;;
46393;Laerm;32099;53.588;10.176;2023-04-24T07:19:59;45.67;36.02;66.92;;
46393;Laerm;32099;53.588;10.176;2023-04-24T07:22:25;49.94;37.63;69.15;;
46393;Laerm;32099;53.588;10.176;2023-04-24T07:24:50;48.75;37.65;64.19;;
46393;Laerm;32099;53.588;10.176;2023-04-24T07:27:15;44.73;36.49;61.95;;
46393;Laerm;32099;53.588;10.176;2023-04-24T07:29:41;47.87;36.99;62.52;;
46393;Laerm;32099;53.588;10.176;2023-04-24T07:32:06;48.88;37.24;64.47;;
46393;Laerm;32099;53.588;10.176;2023-04-24T07:34:32;41.01;36.00;56.90;;
46393;Laerm;32099;53.588;10.176;2023-04-24T07:36:58;46.43;35.90;60.18;;
46393;Laerm;32099;53.588;10.176;2023-04-24T07:39:23;47.60;35.86;64.18;;
46393;Laerm;32099;53.588;10.176;2023-04-24T07:41:48;41.10;35.19;54.99;;
46393;Laerm;32099;53.588;10.176;2023-04-24T07:44:14;41.30;35.15;60.60;;
46393;Laerm;32099;53.588;10.176;2023-04-24T07:46:40;39.43;35.47;50.84;;
46393;Laerm;32099;53.588;10.176;2023-04-24T07:49:05;49.71;37.06;65.31;;
46393;Laerm;32099;53.588;10.176;2023-04-24T07:51:30;47.13;37.96;63.57;;
46393;Laerm;32099;53.588;10.176;2023-04-24T07:53:56;43.18;35.55;58.10;;
46393;Laerm;32099;53.588;10.176;2023-04-24T07:56:21;45.14;37.04;60.34;;
46393;Laerm;32099;53.588;10.176;2023-04-24T07:58:46;42.69;37.05;53.47;;
46393;Laerm;32099;53.588;10.176;2023-04-24T08:01:12;46.17;36.45;64.34;;
46393;Laerm;32099;53.588;10.176;2023-04-24T08:03:37;41.87;36.03;50.89;;
46393;Laerm;32099;53.588;10.176;2023-04-24T08:06:03;40.11;34.67;54.00;;
46393;Laerm;32099;53.588;10.176;2023-04-24T08:08:28;40.21;35.90;51.81;;
46393;Laerm;32099;53.588;10.176;2023-04-24T08:10:53;41.54;35.48;55.60;;
46393;Laerm;32099;53.588;10.176;2023-04-24T08:13:20;39.57;34.09;62.84;;
46393;Laerm;32099;53.588;10.176;2023-04-24T08:15:45;41.45;35.29;54.46;;
46393;Laerm;32099;53.588;10.176;2023-04-24T08:18:10;45.48;37.20;61.60;;
46393;Laerm;32099;53.588;10.176;2023-04-24T08:20:37;44.38;35.04;61.37;;
46393;Laerm;32099;53.588;10.176;2023-04-24T08:23:02;40.95;34.78;53.25;;
46393;Laerm;32099;53.588;10.176;2023-04-24T08:25:28;46.38;36.97;59.33;;
46393;Laerm;32099;53.588;10.176;2023-04-24T08:27:53;40.49;35.20;57.74;;
46393;Laerm;32099;53.588;10.176;2023-04-24T08:30:19;43.25;35.26;59.47;;
46393;Laerm;32099;53.588;10.176;2023-04-24T08:32:45;40.91;35.86;54.40;;
46393;Laerm;32099;53.588;10.176;2023-04-24T08:35:10;44.85;34.89;59.61;;
46393;Laerm;32099;53.588;10.176;2023-04-24T08:37:36;50.38;34.91;78.13;;
46393;Laerm;32099;53.588;10.176;2023-04-24T08:40:11;55.95;34.95;76.05;;
46393;Laerm;32099;53.588;10.176;2023-04-24T08:42:38;48.22;35.27;66.13;;
46393;Laerm;32099;53.588;10.176;2023-04-24T08:45:05;39.55;35.52;59.87;;
46393;Laerm;32099;53.588;10.176;2023-04-24T08:47:32;50.53;35.95;67.54;;
46393;Laerm;32099;53.588;10.176;2023-04-24T08:49:58;49.25;36.31;65.26;;
46393;Laerm;32099;53.588;10.176;2023-04-24T08:52:25;48.05;36.87;64.78;;
46393;Laerm;32099;53.588;10.176;2023-04-24T08:54:52;49.54;34.95;68.05;;
46393;Laerm;32099;53.588;10.176;2023-04-24T08:57:18;47.97;35.66;64.59;;
46393;Laerm;32099;53.588;10.176;2023-04-24T08:59:44;42.86;37.44;54.60;;
46393;Laerm;32099;53.588;10.176;2023-04-24T09:02:10;45.43;36.81;61.15;;
46393;Laerm;32099;53.588;10.176;2023-04-24T09:04:37;51.50;36.82;68.81;;
46393;Laerm;32099;53.588;10.176;2023-04-24T09:07:03;40.13;36.04;50.37;;
46393;Laerm;32099;53.588;10.176;2023-04-24T09:09:30;45.61;36.30;63.50;;
46393;Laerm;32099;53.588;10.176;2023-04-24T09:11:58;40.70;34.91;50.79;;
46393;Laerm;32099;53.588;10.176;2023-04-24T09:14:23;47.76;35.35;64.28;;
46393;Laerm;32099;53.588;10.176;2023-04-24T09:16:49;43.69;36.65;62.29;;
46393;Laerm;32099;53.588;10.176;2023-04-24T09:19:15;46.62;36.84;66.05;;
46393;Laerm;32099;53.588;10.176;2023-04-24T09:21:40;46.06;36.33;65.24;;
46393;Laerm;32099;53.588;10.176;2023-04-24T09:24:15;40.80;34.42;58.78;;
46393;Laerm;32099;53.588;10.176;2023-04-24T09:26:43;54.29;35.37;71.97;;
46393;Laerm;32099;53.588;10.176;2023-04-24T09:29:16;47.50;35.43;67.40;;
46393;Laerm;32099;53.588;10.176;2023-04-24T09:31:42;45.89;37.89;61.65;;
46393;Laerm;32099;53.588;10.176;2023-04-24T09:34:07;44.52;35.39;59.40;;
46393;Laerm;32099;53.588;10.176;2023-04-24T09:36:41;52.66;36.99;68.22;;
46393;Laerm;32099;53.588;10.176;2023-04-24T09:39:10;44.15;37.17;60.18;;
46393;Laerm;32099;53.588;10.176;2023-04-24T09:41:47;47.81;37.94;62.80;;
46393;Laerm;32099;53.588;10.176;2023-04-24T09:44:24;47.84;39.60;65.61;;
46393;Laerm;32099;53.588;10.176;2023-04-24T09:49:27;45.66;36.15;64.42;;
46393;Laerm;32099;53.588;10.176;2023-04-24T09:52:07;51.46;34.61;69.50;;
46393;Laerm;32099;53.588;10.176;2023-04-24T09:54:33;52.99;34.47;68.03;;
46393;Laerm;32099;53.588;10.176;2023-04-24T09:56:58;52.03;35.29;67.14;;
46393;Laerm;32099;53.588;10.176;2023-04-24T09:59:25;48.78;35.33;67.39;;
46393;Laerm;32099;53.588;10.176;2023-04-24T10:01:50;45.48;35.23;60.97;;
46393;Laerm;32099;53.588;10.176;2023-04-24T10:04:18;47.23;33.99;65.87;;
46393;Laerm;32099;53.588;10.176;2023-04-24T10:06:45;50.02;34.05;67.29;;
46393;Laerm;32099;53.588;10.176;2023-04-24T10:09:10;52.98;35.03;70.80;;
46393;Laerm;32099;53.588;10.176;2023-04-24T10:11:43;45.53;34.48;63.55;;
46393;Laerm;32099;53.588;10.176;2023-04-24T10:14:14;51.88;33.80;65.50;;
46393;Laerm;32099;53.588;10.176;2023-04-24T10:16:40;57.18;35.24;77.20;;
46393;Laerm;32099;53.588;10.176;2023-04-24T10:19:06;48.33;34.95;65.54;;
46393;Laerm;32099;53.588;10.176;2023-04-24T10:21:32;47.39;35.98;66.76;;
46393;Laerm;32099;53.588;10.176;2023-04-24T10:23:58;50.16;36.27;68.11;;
46393;Laerm;32099;53.588;10.176;2023-04-24T10:26:25;51.26;34.64;65.57;;
46393;Laerm;32099;53.588;10.176;2023-04-24T10:28:52;48.28;35.27;63.82;;
46393;Laerm;32099;53.588;10.176;2023-04-24T10:31:18;46.79;34.32;64.77;;
46393;Laerm;32099;53.588;10.176;2023-04-24T10:33:45;51.99;34.11;68.38;;
46393;Laerm;32099;53.588;10.176;2023-04-24T10:36:12;51.34;33.90;69.48;;
46393;Laerm;32099;53.588;10.176;2023-04-24T10:38:40;47.95;34.32;66.81;;
46393;Laerm;32099;53.588;10.176;2023-04-24T10:41:11;45.09;32.69;63.59;;
46393;Laerm;32099;53.588;10.176;2023-04-24T10:43:44;48.22;33.47;68.62;;
46393;Laerm;32099;53.588;10.176;2023-04-24T10:46:10;48.71;33.96;70.11;;
46393;Laerm;32099;53.588;10.176;2023-04-24T10:48:35;42.51;33.60;63.47;;
46393;Laerm;32099;53.588;10.176;2023-04-24T10:51:11;47.14;33.76;63.13;;
46393;Laerm;32099;53.588;10.176;2023-04-24T10:53:36;49.96;34.22;64.85;;
46393;Laerm;32099;53.588;10.176;2023-04-24T10:56:04;53.49;34.78;70.82;;
46393;Laerm;32099;53.588;10.176;2023-04-24T10:58:38;50.91;34.21;70.30;;
46393;Laerm;32099;53.588;10.176;2023-04-24T11:01:05;50.24;33.50;67.44;;
46393;Laerm;32099;53.588;10.176;2023-04-24T11:03:32;47.37;33.17;66.89;;
46393;Laerm;32099;53.588;10.176;2023-04-24T11:06:05;50.17;33.62;69.33;;
46393;Laerm;32099;53.588;10.176;2023-04-24T11:08:45;48.57;33.92;72.14;;
46393;Laerm;32099;53.588;10.176;2023-04-24T11:11:15;49.36;33.79;69.03;;
46393;Laerm;32099;53.588;10.176;2023-04-24T11:16:27;50.92;34.14;68.92;;
46393;Laerm;32099;53.588;10.176;2023-04-24T11:19:04;50.69;32.67;64.79;;
46393;Laerm;32099;53.588;10.176;2023-04-24T11:21:39;48.82;33.85;65.57;;
46393;Laerm;32099;53.588;10.176;2023-04-24T11:26:48;54.42;34.09;73.25;;
46393;Laerm;32099;53.588;10.176;2023-04-24T11:29:15;42.45;32.66;64.69;;
46393;Laerm;32099;53.588;10.176;2023-04-24T11:31:41;48.19;32.27;68.21;;
46393;Laerm;32099;53.588;10.176;2023-04-24T11:34:14;45.36;32.82;62.78;;
46393;Laerm;32099;53.588;10.176;2023-04-24T11:36:44;42.24;32.76;66.79;;
46393;Laerm;32099;53.588;10.176;2023-04-24T11:39:10;51.46;34.80;67.38;;
46393;Laerm;32099;53.588;10.176;2023-04-24T11:41:36;51.34;35.00;69.63;;
46393;Laerm;32099;53.588;10.176;2023-04-24T11:44:03;50.80;35.51;66.87;;
46393;Laerm;32099;53.588;10.176;2023-04-24T11:46:30;48.08;37.48;64.14;;
46393;Laerm;32099;53.588;10.176;2023-04-24T11:48:57;48.71;36.27;67.23;;
46393;Laerm;32099;53.588;10.176;2023-04-24T11:51:23;47.17;35.37;66.16;;
46393;Laerm;32099;53.588;10.176;2023-04-24T11:53:51;47.79;34.55;64.94;;
46393;Laerm;32099;53.588;10.176;2023-04-24T11:56:18;43.96;37.24;62.12;;
46393;Laerm;32099;53.588;10.176;2023-04-24T11:58:44;40.04;34.48;57.33;;
46393;Laerm;32099;53.588;10.176;2023-04-24T12:01:12;50.86;35.27;66.76;;
46393;Laerm;32099;53.588;10.176;2023-04-24T12:03:37;47.23;35.00;63.65;;
46393;Laerm;32099;53.588;10.176;2023-04-24T12:08:33;50.12;35.72;67.80;;
46393;Laerm;32099;53.588;10.176;2023-04-24T12:11:00;47.28;37.08;70.58;;
46393;Laerm;32099;53.588;10.176;2023-04-24T12:13:26;52.32;35.55;75.12;;
46393;Laerm;32099;53.588;10.176;2023-04-24T12:15:51;49.98;35.25;66.43;;
46393;Laerm;32099;53.588;10.176;2023-04-24T12:18:16;43.46;34.10;59.27;;
46393;Laerm;32099;53.588;10.176;2023-04-24T12:20:42;49.54;33.79;71.22;;
46393;Laerm;32099;53.588;10.176;2023-04-24T12:23:07;39.91;34.04;55.13;;
46393;Laerm;32099;53.588;10.176;2023-04-24T12:25:32;48.38;34.70;64.49;;
46393;Laerm;32099;53.588;10.176;2023-04-24T12:30:34;52.11;40.41;69.48;;
46393;Laerm;32099;53.588;10.176;2023-04-24T12:33:00;50.64;44.92;59.37;;
46393;Laerm;32099;53.588;10.176;2023-04-24T12:35:30;51.45;44.88;66.18;;
46393;Laerm;32099;53.588;10.176;2023-04-24T12:38:08;51.55;42.22;68.40;;
46393;Laerm;32099;53.588;10.176;2023-04-24T12:40:34;49.72;42.55;67.18;;
46393;Laerm;32099;53.588;10.176;2023-04-24T12:42:59;51.73;41.93;67.75;;
46393;Laerm;32099;53.588;10.176;2023-04-24T12:45:24;50.77;42.07;64.77;;
46393;Laerm;32099;53.588;10.176;2023-04-24T12:47:50;47.15;42.30;62.44;;
46393;Laerm;32099;53.588;10.176;2023-04-24T12:50:15;50.40;42.37;68.61;;
46393;Laerm;32099;53.588;10.176;2023-04-24T12:52:42;46.73;38.03;61.42;;
46393;Laerm;32099;53.588;10.176;2023-04-24T12:55:08;57.90;38.54;79.66;;
46393;Laerm;32099;53.588;10.176;2023-04-24T12:57:35;51.17;37.13;65.73;;
46393;Laerm;32099;53.588;10.176;2023-04-24T13:00:01;51.13;36.63;68.39;;
46393;Laerm;32099;53.588;10.176;2023-04-24T13:02:28;46.49;33.92;63.84;;
46393;Laerm;32099;53.588;10.176;2023-04-24T13:04:55;45.78;34.24;64.69;;
46393;Laerm;32099;53.588;10.176;2023-04-24T13:07:20;45.19;34.78;61.02;;
46393;Laerm;32099;53.588;10.176;2023-04-24T13:09:47;49.96;35.78;67.21;;
46393;Laerm;32099;53.588;10.176;2023-04-24T13:12:14;48.94;35.17;65.07;;
46393;Laerm;32099;53.588;10.176;2023-04-24T13:14:40;48.85;35.68;62.65;;
46393;Laerm;32099;53.588;10.176;2023-04-24T13:17:05;47.25;36.32;65.82;;
46393;Laerm;32099;53.588;10.176;2023-04-24T13:19:36;53.32;36.47;69.14;;
46393;Laerm;32099;53.588;10.176;2023-04-24T13:22:02;55.22;36.17;75.51;;
46393;Laerm;32099;53.588;10.176;2023-04-24T13:24:27;43.41;36.42;64.44;;
46393;Laerm;32099;53.588;10.176;2023-04-24T13:26:53;47.21;35.29;65.85;;
46393;Laerm;32099;53.588;10.176;2023-04-24T13:29:19;52.81;34.11;68.10;;
46393;Laerm;32099;53.588;10.176;2023-04-24T13:31:46;51.61;35.82;69.87;;
46393;Laerm;32099;53.588;10.176;2023-04-24T13:34:12;54.40;36.84;77.87;;
46393;Laerm;32099;53.588;10.176;2023-04-24T13:36:37;40.05;35.24;49.04;;
46393;Laerm;32099;53.588;10.176;2023-04-24T13:39:02;52.90;34.44;70.82;;